Time;durP1;ratioP1;P1;durP2;ratioP2;P2;SDS_P1;SDS_P2;PMS_P1;PMS_P2;Temp;Humidity;BMP_temperature;BMP_pressure;BME280_temperature;BME280_humidity;BME280_pressure;Samples;Min_cycle;Max_cycle;Signal;HPM_P1;HPM_P2
2022/12/08 00:00:06;;;;;;;4.70;1.62;;;;;;;0.32;87.36;100113.92;1676646;84;21436;-74
2022/12/08 00:02:50;;;;;;;2.15;1.52;;;;;;;0.31;87.29;100110.94;1676725;84;20971;-74
2022/12/08 00:11:42;;;;;;;5.50;1.75;;;;;;;0.31;87.27;100124.50;1674493;81;21785;-74
2022/12/08 00:14:31;;;;;;;3.10;1.75;;;;;;;0.32;87.30;100122.41;1675997;84;21399;-74
2022/12/08 00:17:16;;;;;;;2.33;1.35;;;;;;;0.33;87.29;100121.58;1682977;82;21016;-74
2022/12/08 00:20:01;;;;;;;2.08;1.55;;;;;;;0.35;87.23;100120.74;1710293;81;20949;-74
2022/12/08 00:22:46;;;;;;;3.90;1.52;;;;;;;0.35;87.25;100128.37;1713285;81;20926;-74
2022/12/08 00:25:36;;;;;;;2.65;1.20;;;;;;;0.33;87.17;100129.62;1710915;81;21766;-74
2022/12/08 00:28:21;;;;;;;3.85;1.52;;;;;;;0.33;87.17;100125.80;1710981;81;21922;-74
2022/12/08 00:31:10;;;;;;;4.10;1.40;;;;;;;0.32;87.18;100122.41;1712540;81;20993;-74
2022/12/08 00:33:55;;;;;;;2.98;1.40;;;;;;;0.33;87.17;100120.30;1710536;81;20910;-74
2022/12/08 00:36:40;;;;;;;3.33;1.50;;;;;;;0.36;87.18;100124.59;1716868;81;20969;-74
2022/12/08 00:39:26;;;;;;;3.05;1.35;;;;;;;0.37;87.12;100128.84;1708392;80;21581;-74
2022/12/08 00:42:11;;;;;;;6.13;1.77;;;;;;;0.39;87.14;100128.87;1709132;81;20933;-74
2022/12/08 00:44:55;;;;;;;3.10;1.40;;;;;;;0.40;87.16;100127.63;1708916;81;20890;-74
2022/12/08 00:47:41;;;;;;;5.62;1.47;;;;;;;0.45;87.18;100125.16;1711008;81;21000;-74
2022/12/08 00:50:26;;;;;;;2.10;1.45;;;;;;;0.45;87.14;100126.02;1707854;81;20945;-74
2022/12/08 00:53:11;;;;;;;1.95;1.40;;;;;;;0.48;87.15;100126.06;1711635;81;20921;-74
2022/12/08 00:55:55;;;;;;;3.75;1.47;;;;;;;0.49;87.11;100125.23;1711153;81;20969;-74
2022/12/08 00:58:40;;;;;;;3.20;1.42;;;;;;;0.51;87.12;100126.53;1713249;81;21037;-74
2022/12/08 01:01:26;;;;;;;5.12;1.60;;;;;;;0.52;87.10;100131.61;1707112;81;20974;-75
2022/12/08 01:04:15;;;;;;;3.43;2.23;;;;;;;0.53;87.06;100133.74;1707271;81;21048;-75
2022/12/08 01:07:00;;;;;;;2.40;1.67;;;;;;;0.51;86.96;100129.94;1710986;81;21425;-74
2022/12/08 01:09:44;;;;;;;3.22;1.70;;;;;;;0.52;86.99;100135.42;1711572;81;21632;-74
2022/12/08 01:12:30;;;;;;;4.10;1.62;;;;;;;0.52;87.04;100146.88;1702187;81;20917;-74
2022/12/08 01:15:14;;;;;;;3.62;1.80;;;;;;;0.53;86.96;100146.46;1714435;81;20969;-75
2022/12/08 01:17:59;;;;;;;5.83;1.85;;;;;;;0.52;87.00;100141.79;1709287;81;21572;-74
2022/12/08 01:20:45;;;;;;;3.85;2.12;;;;;;;0.52;86.99;100149.87;1716090;81;20953;-75
2022/12/08 01:23:30;;;;;;;4.67;1.80;;;;;;;0.54;87.00;100155.80;1706240;81;21049;-75
2022/12/08 01:26:17;;;;;;;2.77;1.67;;;;;;;0.54;87.02;100151.58;1703888;81;20914;-74
2022/12/08 01:29:01;;;;;;;5.40;1.90;;;;;;;0.57;87.03;100154.59;1707684;81;20965;-75
2022/12/08 01:31:46;;;;;;;4.05;1.90;;;;;;;0.56;86.97;100154.14;1704965;81;21505;-74
2022/12/08 01:34:31;;;;;;;3.12;1.95;;;;;;;0.57;87.01;100157.98;1703841;81;20913;-75
2022/12/08 01:37:16;;;;;;;2.80;1.53;;;;;;;0.59;87.00;100165.64;1549898;83;10000650;-74
2022/12/08 01:40:02;;;;;;;3.52;1.85;;;;;;;0.59;86.97;100161.83;1705491;81;20956;-75
2022/12/08 01:42:48;;;;;;;5.95;2.15;;;;;;;0.59;86.97;100170.31;1707017;81;21500;-74
2022/12/08 01:45:33;;;;;;;2.55;1.80;;;;;;;0.58;86.93;100166.06;1704765;81;21049;-75
2022/12/08 01:48:25;;;;;;;2.98;1.87;;;;;;;0.57;86.94;100164.77;1705601;81;21411;-75
2022/12/08 01:51:10;;;;;;;4.92;2.12;;;;;;;0.55;86.96;100157.10;1704019;81;21483;-74
2022/12/08 01:53:55;;;;;;;5.22;2.40;;;;;;;0.53;86.88;100155.36;1702359;81;20953;-75
2022/12/08 01:56:51;;;;;;;9.10;3.40;;;;;;;0.52;86.96;100160.87;1708917;81;21500;-75
2022/12/08 01:59:41;;;;;;;5.95;2.50;;;;;;;0.54;86.98;100168.52;1708430;81;21313;-74
2022/12/08 02:02:31;;;;;;;5.78;2.75;;;;;;;0.53;86.93;100168.08;1707759;81;21466;-74
2022/12/08 02:05:16;;;;;;;5.28;2.50;;;;;;;0.53;86.96;100166.39;1704293;81;20945;-74
2022/12/08 02:08:11;;;;;;;4.53;2.70;;;;;;;0.53;86.96;100163.84;1684492;81;20986;-74
2022/12/08 02:10:55;;;;;;;5.40;2.45;;;;;;;0.51;86.88;100165.55;1700805;81;20946;-74
2022/12/08 02:13:42;;;;;;;5.60;2.37;;;;;;;0.49;86.88;100164.66;1702999;81;20937;-74
2022/12/08 02:16:48;;;;;;;7.75;2.98;;;;;;;0.50;86.90;100170.19;1701915;81;20997;-74
2022/12/08 02:19:46;;;;;;;6.45;2.95;;;;;;;0.50;86.93;100172.73;1712727;81;21038;-74
2022/12/08 02:22:55;;;;;;;3.77;2.20;;;;;;;0.50;86.91;100176.97;1714023;81;20978;-74
2022/12/08 02:25:48;;;;;;;5.30;2.47;;;;;;;0.48;86.85;100184.98;1709488;81;20974;-74
2022/12/08 02:29:24;;;;;;;4.75;2.15;;;;;;;0.47;86.88;100188.35;1663903;84;21597;-74
2022/12/08 02:32:45;;;;;;;3.70;2.02;;;;;;;0.44;86.81;100194.24;1715149;81;21416;-74
2022/12/08 02:35:44;;;;;;;4.10;1.60;;;;;;;0.41;86.79;100200.55;1661265;83;20958;-74
2022/12/08 02:38:46;;;;;;;4.70;2.37;;;;;;;0.39;86.78;100199.66;1714865;81;21368;-74
2022/12/08 02:42:02;;;;;;;8.78;2.40;;;;;;;0.34;86.77;100196.17;1714150;81;20998;-74
2022/12/08 02:45:00;;;;;;;5.05;2.27;;;;;;;0.31;86.78;100197.39;1662480;83;21367;-74
2022/12/08 02:47:46;;;;;;;4.72;2.20;;;;;;;0.27;86.74;100199.02;1714056;81;20970;-75
2022/12/08 02:50:31;;;;;;;2.67;1.75;;;;;;;0.25;86.71;100193.05;1713002;81;20965;-74
2022/12/08 02:53:16;;;;;;;3.20;2.10;;;;;;;0.22;86.69;100198.48;1663059;83;20899;-74
2022/12/08 02:56:27;;;;;;;5.97;2.12;;;;;;;0.18;86.66;100201.38;1712313;81;20969;-74
2022/12/08 02:59:49;;;;;;;2.33;1.72;;;;;;;0.15;86.66;100205.55;1663380;83;20922;-74
2022/12/08 03:02:55;;;;;;;7.60;2.85;;;;;;;0.10;86.65;100200.79;1709711;81;20982;-74
2022/12/08 03:06:05;;;;;;;7.87;3.65;;;;;;;0.07;86.67;100195.64;1662793;83;21470;-74
2022/12/08 03:09:04;;;;;;;8.48;5.10;;;;;;;0.05;86.65;100193.08;1714927;81;21354;-74
2022/12/08 03:11:57;;;;;;;8.13;6.08;;;;;;;0.03;86.65;100192.19;1715286;81;21528;-74
2022/12/08 03:14:47;;;;;;;8.95;5.62;;;;;;;0.01;86.69;100187.48;1664457;84;21014;-74
2022/12/08 03:17:32;;;;;;;8.43;5.12;;;;;;;-0.01;86.68;100191.30;1716098;81;20969;-74
2022/12/08 03:20:21;;;;;;;9.68;5.22;;;;;;;-0.02;86.64;100194.67;1715689;81;21353;-74
2022/12/08 03:23:11;;;;;;;8.53;4.58;;;;;;;-0.05;86.60;100184.86;1718361;81;20949;-74
2022/12/08 03:26:01;;;;;;;7.25;4.70;;;;;;;-0.08;86.59;100191.16;1718650;81;20950;-74
2022/12/08 03:28:46;;;;;;;8.78;4.50;;;;;;;-0.12;86.58;100189.37;1720322;81;21029;-74
2022/12/08 03:31:34;;;;;;;4.67;4.17;;;;;;;-0.16;86.58;100183.78;1664938;84;21752;-74
2022/12/08 03:34:21;;;;;;;7.58;3.90;;;;;;;-0.19;86.55;100187.53;1720210;81;20903;-74
2022/12/08 03:37:06;;;;;;;7.67;4.25;;;;;;;-0.22;86.56;100186.20;1705330;81;20942;-74
2022/12/08 03:39:51;;;;;;;5.67;3.92;;;;;;;-0.26;86.55;100178.07;1721084;81;21456;-74
2022/12/08 03:42:36;;;;;;;6.55;3.90;;;;;;;-0.29;86.52;100183.09;1720120;81;20899;-74
2022/12/08 03:45:22;;;;;;;6.08;3.90;;;;;;;-0.35;86.52;100178.33;1664353;84;21008;-74
2022/12/08 03:48:06;;;;;;;8.73;4.35;;;;;;;-0.35;86.56;100183.81;1666939;83;21250;-74
2022/12/08 03:50:51;;;;;;;7.70;3.83;;;;;;;-0.37;86.55;100181.66;1717907;81;21426;-74
2022/12/08 03:53:37;;;;;;;3.90;3.02;;;;;;;-0.39;86.53;100188.39;1717305;81;21428;-74
2022/12/08 03:56:26;;;;;;;4.35;3.27;;;;;;;-0.39;86.54;100184.16;1716607;81;20912;-74
2022/12/08 03:59:11;;;;;;;5.22;3.37;;;;;;;-0.43;86.51;100180.26;1723622;80;20950;-75
2022/12/08 04:01:56;;;;;;;5.50;3.12;;;;;;;-0.44;86.48;100176.86;1721543;81;20903;-74
2022/12/08 04:04:41;;;;;;;8.63;3.75;;;;;;;-0.47;86.50;100172.13;1665476;83;20958;-75
2022/12/08 04:07:26;;;;;;;7.35;3.70;;;;;;;-0.48;86.49;100169.14;1671329;82;21015;-74
2022/12/08 04:10:11;;;;;;;7.15;3.15;;;;;;;-0.50;86.49;100162.77;1669963;83;20935;-74
2022/12/08 04:12:56;;;;;;;5.75;3.08;;;;;;;-0.49;86.48;100166.16;1668413;83;21015;-74
2022/12/08 04:15:46;;;;;;;5.28;3.75;;;;;;;-0.49;86.55;100167.43;1666007;83;458955;-74
2022/12/08 04:18:33;;;;;;;4.70;2.87;;;;;;;-0.49;86.48;100167.43;1714298;81;21507;-73
2022/12/08 04:21:17;;;;;;;10.82;3.87;;;;;;;-0.49;86.49;100168.28;1681580;81;20921;-74
2022/12/08 04:24:02;;;;;;;8.75;3.58;;;;;;;-0.51;86.42;100166.54;1704937;81;21002;-74
2022/12/08 04:26:48;;;;;;;4.80;4.00;;;;;;;-0.53;86.41;100161.88;1702490;81;21447;-74
2022/12/08 04:29:33;;;;;;;7.00;3.87;;;;;;;-0.54;86.46;100157.20;1703405;81;21379;-74
2022/12/08 04:32:18;;;;;;;6.28;3.90;;;;;;;-0.56;86.39;100155.05;1705079;81;20980;-74
2022/12/08 04:35:03;;;;;;;4.42;3.62;;;;;;;-0.57;86.39;100156.28;1705217;81;21612;-74
2022/12/08 04:37:48;;;;;;;4.87;3.55;;;;;;;-0.59;86.39;100162.59;1706338;81;21033;-74
2022/12/08 04:40:33;;;;;;;7.75;3.80;;;;;;;-0.60;86.38;100158.75;1706623;81;21565;-74
2022/12/08 04:43:19;;;;;;;9.20;3.83;;;;;;;-0.61;86.38;100162.97;1704525;81;21446;-74
2022/12/08 04:46:07;;;;;;;9.08;4.25;;;;;;;-0.61;86.33;100155.77;1702966;81;21000;-74
2022/12/08 04:48:52;;;;;;;9.98;4.10;;;;;;;-0.63;86.25;100149.80;1704075;81;21411;-74
2022/12/08 04:51:37;;;;;;;7.20;4.62;;;;;;;-0.65;86.32;100152.72;1701612;81;21359;-74
2022/12/08 04:54:22;;;;;;;9.18;4.40;;;;;;;-0.67;86.36;100152.69;1703765;81;21504;-74
2022/12/08 04:57:07;;;;;;;6.00;4.72;;;;;;;-0.68;86.36;100154.37;1704726;81;20981;-74
2022/12/08 04:59:52;;;;;;;12.60;5.87;;;;;;;-0.69;86.33;100153.92;1705128;81;21021;-74
2022/12/08 05:02:37;;;;;;;11.33;6.62;;;;;;;-0.70;86.31;100151.35;1706516;81;20929;-74
2022/12/08 05:05:21;;;;;;;11.50;6.55;;;;;;;-0.70;86.36;100153.48;1702308;81;21307;-74
2022/12/08 05:08:08;;;;;;;8.65;6.12;;;;;;;-0.71;86.32;100147.95;1703370;81;21343;-75
2022/12/08 05:10:52;;;;;;;11.40;6.85;;;;;;;-0.72;86.32;100145.38;1705289;81;21398;-74
2022/12/08 05:13:37;;;;;;;10.40;6.37;;;;;;;-0.73;86.34;100148.33;1706028;81;22002;-74
2022/12/08 05:16:22;;;;;;;13.43;6.22;;;;;;;-0.73;86.33;100148.33;1704020;81;20973;-74
2022/12/08 05:19:09;;;;;;;19.92;8.00;;;;;;;-0.75;86.26;100143.63;1708206;81;21485;-77
2022/12/08 05:21:55;;;;;;;22.85;9.28;;;;;;;-0.75;86.28;100147.85;1715679;81;21601;-74
2022/12/08 05:24:40;;;;;;;23.18;9.18;;;;;;;-0.76;86.34;100146.99;1662569;83;20985;-74
2022/12/08 05:27:25;;;;;;;25.23;10.08;;;;;;;-0.76;86.32;100146.14;1713929;81;20958;-74
2022/12/08 05:30:10;;;;;;;27.65;11.10;;;;;;;-0.76;86.28;100151.22;1715146;81;21758;-74
2022/12/08 05:32:55;;;;;;;32.03;10.43;;;;;;;-0.76;86.30;100156.29;1715347;81;20954;-74
2022/12/08 05:35:39;;;;;;;26.17;10.00;;;;;;;-0.77;86.30;100148.23;1713153;81;20965;-74
2022/12/08 05:38:24;;;;;;;31.23;9.68;;;;;;;-0.75;86.35;100144.91;1713119;81;21324;-74
2022/12/08 05:41:19;;;;;;;28.13;9.33;;;;;;;-0.74;86.35;100143.22;1715327;81;21524;-74
2022/12/08 05:44:05;;;;;;;27.53;8.47;;;;;;;-0.74;86.35;100142.81;1716403;81;21501;-74
2022/12/08 05:46:50;;;;;;;30.37;11.87;;;;;;;-0.72;86.35;100145.38;1716593;81;20950;-74
2022/12/08 05:49:35;;;;;;;40.90;12.23;;;;;;;-0.72;86.34;100147.51;1714497;81;21786;-75
2022/12/08 05:52:20;;;;;;;45.58;13.53;;;;;;;-0.70;86.31;100143.73;1713719;81;21034;-74
2022/12/08 05:55:05;;;;;;;37.38;11.60;;;;;;;-0.70;86.31;100142.05;1715597;81;21373;-75
2022/12/08 05:57:50;;;;;;;34.53;11.08;;;;;;;-0.71;86.32;100138.21;1716638;81;20925;-75
2022/12/08 06:00:35;;;;;;;36.70;11.50;;;;;;;-0.69;86.32;100136.56;1716855;81;20973;-75
2022/12/08 06:03:20;;;;;;;31.27;9.98;;;;;;;-0.69;86.30;100136.16;1716148;80;20949;-75
2022/12/08 06:06:05;;;;;;;26.05;10.72;;;;;;;-0.66;86.35;100132.83;1715797;81;21292;-75
2022/12/08 06:08:51;;;;;;;37.73;10.88;;;;;;;-0.65;86.32;100137.08;1713928;81;20941;-75
2022/12/08 06:11:35;;;;;;;26.70;11.33;;;;;;;-0.63;86.32;100139.23;1697806;81;20922;-75
2022/12/08 06:14:20;;;;;;;33.60;11.03;;;;;;;-0.63;86.27;100133.30;1711386;81;22003;-75
2022/12/08 06:17:05;;;;;;;26.60;9.00;;;;;;;-0.65;86.26;100137.48;1715414;81;20906;-75
2022/12/08 06:19:50;;;;;;;20.95;8.85;;;;;;;-0.64;86.30;100139.20;1713632;81;20977;-74
2022/12/08 06:22:36;;;;;;;23.23;9.73;;;;;;;-0.63;86.32;100137.97;1713973;81;20897;-74
2022/12/08 06:25:22;;;;;;;25.77;9.78;;;;;;;-0.61;86.29;100141.39;1713034;81;20962;-74
2022/12/08 06:28:07;;;;;;;24.60;9.73;;;;;;;-0.61;86.27;100140.12;1662585;83;20962;-75
2022/12/08 06:30:52;;;;;;;20.37;9.15;;;;;;;-0.60;86.28;100137.17;1713998;81;21561;-75
2022/12/08 06:33:37;;;;;;;21.15;10.70;;;;;;;-0.60;86.32;100132.95;1663468;82;20964;-75
2022/12/08 06:36:25;;;;;;;18.50;9.73;;;;;;;-0.57;86.32;100135.97;1651844;85;21542;-76
2022/12/08 06:39:10;;;;;;;18.02;9.90;;;;;;;-0.57;86.30;100139.78;1714128;81;20907;-78
2022/12/08 06:44:59;;;;;;;17.48;10.85;;;;;;;-0.54;86.37;100135.63;1715650;81;20988;-81
2022/12/08 06:47:45;;;;;;;16.42;9.95;;;;;;;-0.50;86.42;100136.52;1714735;81;20933;-82
2022/12/08 06:50:31;;;;;;;24.37;11.78;;;;;;;-0.47;86.44;100136.58;1717139;81;20995;-81
2022/12/08 06:53:16;;;;;;;26.57;13.15;;;;;;;-0.44;86.42;100136.23;1716638;81;20973;-81
2022/12/08 06:56:01;;;;;;;26.27;13.62;;;;;;;-0.40;86.44;100137.14;1716452;81;20962;-81
2022/12/08 06:58:46;;;;;;;22.02;13.85;;;;;;;-0.38;86.46;100136.77;1718558;81;21533;-81
2022/12/08 07:01:31;;;;;;;26.33;13.48;;;;;;;-0.36;86.44;100135.11;1712761;81;20903;-76
2022/12/08 07:04:16;;;;;;;23.83;11.63;;;;;;;-0.34;86.45;100134.73;1714292;81;21253;-78
2022/12/08 07:07:01;;;;;;;24.47;11.00;;;;;;;-0.32;86.44;100138.16;1715018;81;21489;-77
2022/12/08 07:09:46;;;;;;;14.10;9.13;;;;;;;-0.30;86.50;100133.97;1715314;81;21740;-80
2022/12/08 07:12:30;;;;;;;12.65;8.50;;;;;;;-0.25;86.51;100140.41;1664335;83;21038;-79
2022/12/08 07:15:15;;;;;;;12.70;8.88;;;;;;;-0.21;86.52;100142.19;1715075;81;21047;-79
2022/12/08 07:18:00;;;;;;;15.88;8.20;;;;;;;-0.19;86.52;100139.27;1718678;81;20954;-76
2022/12/08 07:20:45;;;;;;;17.32;9.65;;;;;;;-0.15;86.51;100143.58;1712504;81;21382;-76
2022/12/08 07:23:30;;;;;;;18.45;8.93;;;;;;;-0.14;86.49;100137.25;1707645;81;20961;-76
2022/12/08 07:26:15;;;;;;;14.60;8.95;;;;;;;-0.14;86.45;100132.17;1708473;81;21290;-76
2022/12/08 07:29:01;;;;;;;14.43;9.75;;;;;;;-0.12;86.49;100131.78;1708476;81;20918;-76
2022/12/08 07:31:45;;;;;;;20.60;9.88;;;;;;;-0.11;86.54;100127.15;1706224;81;20946;-76
2022/12/08 07:34:30;;;;;;;20.25;11.00;;;;;;;-0.07;86.58;100121.30;1709906;81;20925;-74
2022/12/08 07:37:15;;;;;;;20.60;10.28;;;;;;;-0.03;86.58;100121.80;1703076;81;20915;-77
2022/12/08 07:40:00;;;;;;;18.62;10.72;;;;;;;0.01;86.59;100117.59;1706706;81;21007;-77
2022/12/08 07:42:45;;;;;;;19.00;10.95;;;;;;;0.05;86.62;100110.88;1704838;81;21477;-77
2022/12/08 07:45:30;;;;;;;24.00;11.30;;;;;;;0.11;86.66;100113.54;1705206;81;21497;-77
2022/12/08 07:48:15;;;;;;;21.87;11.00;;;;;;;0.14;86.60;100105.55;1703537;81;20918;-77
2022/12/08 07:51:04;;;;;;;20.15;11.53;;;;;;;0.15;86.58;100111.49;1703899;81;21056;-77
2022/12/08 07:53:50;;;;;;;16.60;11.38;;;;;;;0.17;86.63;100106.88;1706165;81;20953;-77
2022/12/08 07:56:35;;;;;;;19.37;11.48;;;;;;;0.21;86.64;100104.83;1708977;81;21404;-77
2022/12/08 07:59:20;;;;;;;21.75;11.33;;;;;;;0.23;86.67;100104.45;1709646;81;21964;-77
2022/12/08 08:02:05;;;;;;;21.48;12.43;;;;;;;0.26;86.67;100103.64;1705682;81;20970;-76
2022/12/08 08:04:50;;;;;;;19.85;13.40;;;;;;;0.29;86.70;100101.16;1704926;81;21511;-77
2022/12/08 08:07:36;;;;;;;21.97;13.32;;;;;;;0.29;86.69;100093.52;1705500;81;20988;-77
2022/12/08 08:10:20;;;;;;;28.55;14.20;;;;;;;0.32;86.73;100090.63;1704548;81;20985;-77
2022/12/08 08:13:05;;;;;;;22.37;13.95;;;;;;;0.33;86.75;100094.02;1701246;81;21858;-78
2022/12/08 08:15:50;;;;;;;25.92;13.35;;;;;;;0.34;86.70;100094.45;1701571;81;20981;-78
2022/12/08 08:18:40;;;;;;;26.15;14.43;;;;;;;0.36;86.80;100094.07;1702263;81;21959;-78
2022/12/08 08:21:22;;;;;;;23.05;13.32;;;;;;;0.38;86.81;100091.14;1706901;81;20985;-78
2022/12/08 08:24:08;;;;;;;25.97;13.08;;;;;;;0.42;86.83;100088.23;1702871;81;21521;-77
2022/12/08 08:26:54;;;;;;;24.30;13.18;;;;;;;0.45;86.85;100089.14;1704229;81;21478;-77
2022/12/08 08:29:39;;;;;;;;;;;;;;;0.49;86.89;100087.09;1705311;81;21446;-75
2022/12/08 08:32:23;;;;;;;26.15;12.95;;;;;;;0.52;86.93;100085.83;1704551;81;20424;-75
2022/12/08 08:35:09;;;;;;;25.45;13.45;;;;;;;0.56;86.92;100085.46;1707976;81;20961;-74
2022/12/08 08:37:53;;;;;;;20.30;13.15;;;;;;;0.59;86.92;100086.37;1702850;81;20952;-75
2022/12/08 08:40:38;;;;;;;24.40;13.08;;;;;;;0.63;86.95;100084.31;1704323;81;21387;-77
2022/12/08 08:43:29;;;;;;;20.12;12.78;;;;;;;0.69;86.97;100087.78;1703060;81;21896;-77
2022/12/08 08:46:14;;;;;;;17.55;12.18;;;;;;;0.72;86.97;100091.23;1704531;81;21037;-77
2022/12/08 08:48:59;;;;;;;21.65;12.43;;;;;;;0.76;86.96;100087.05;1704248;81;20925;-76
2022/12/08 08:51:44;;;;;;;22.75;13.70;;;;;;;0.77;86.92;100083.66;1688006;81;21498;-77
2022/12/08 08:54:29;;;;;;;16.70;12.18;;;;;;;0.80;86.99;100087.11;1703400;81;21743;-77
2022/12/08 08:57:14;;;;;;;22.30;12.45;;;;;;;0.84;87.02;100091.83;1704782;81;21392;-77
2022/12/08 08:59:59;;;;;;;18.50;12.20;;;;;;;0.86;87.01;100088.48;1705547;81;21415;-77
2022/12/08 09:02:44;;;;;;;20.52;13.58;;;;;;;0.88;87.01;100092.31;1705744;81;20969;-77
2022/12/08 09:05:29;;;;;;;26.13;14.27;;;;;;;0.89;87.03;100082.16;1589594;81;10000329;-77
2022/12/08 09:08:14;;;;;;;20.50;13.30;;;;;;;0.92;87.08;100086.44;1700912;81;21461;-78
2022/12/08 09:10:59;;;;;;;23.87;14.45;;;;;;;0.94;87.08;100083.08;1711008;81;20929;-78
2022/12/08 09:13:49;;;;;;;23.40;13.53;;;;;;;0.96;87.08;100080.56;1706570;81;21084;-78
2022/12/08 09:16:33;;;;;;;23.95;15.35;;;;;;;0.98;87.10;100081.02;1710563;81;20921;-78
2022/12/08 09:19:19;;;;;;;22.02;14.45;;;;;;;1.02;87.15;100080.64;1708971;81;21556;-77
2022/12/08 09:22:04;;;;;;;22.37;14.80;;;;;;;1.05;87.12;100084.47;1719507;81;20962;-78
2022/12/08 09:24:49;;;;;;;21.93;15.35;;;;;;;1.05;87.10;100089.56;1721615;82;21021;-78
2022/12/08 09:27:34;;;;;;;22.58;15.20;;;;;;;1.07;87.12;100085.77;1720802;82;20950;-78
2022/12/08 09:30:19;;;;;;;20.85;15.58;;;;;;;1.09;87.12;100076.46;1722080;81;21745;-77
2022/12/08 09:33:04;;;;;;;22.10;14.83;;;;;;;1.11;87.15;100070.97;1722528;81;21463;-77
2022/12/08 09:35:49;;;;;;;20.27;14.75;;;;;;;1.14;87.16;100065.92;1721100;81;21296;-78
2022/12/08 09:38:34;;;;;;;19.32;14.38;;;;;;;1.17;87.19;100056.63;1719005;81;20894;-78
2022/12/08 09:41:34;;;;;;;17.15;13.45;;;;;;;1.20;87.20;100047.76;1721318;81;20989;-79
2022/12/08 09:44:50;;;;;;;20.52;13.48;;;;;;;1.24;87.23;100049.51;1718251;81;21029;-78
2022/12/08 09:48:01;;;;;;;22.20;14.90;;;;;;;1.28;87.24;100058.90;1718052;82;21593;-79
2022/12/08 09:50:57;;;;;;;20.00;14.53;;;;;;;1.32;87.25;100054.70;1720063;82;21379;-77
2022/12/08 09:53:53;;;;;;;22.55;14.93;;;;;;;1.36;87.25;100050.08;1719740;81;21755;-78
2022/12/08 09:56:39;;;;;;;20.15;14.18;;;;;;;1.39;87.25;100042.48;1717295;81;20910;-78
2022/12/08 09:59:31;;;;;;;19.50;14.38;;;;;;;1.41;87.22;100041.22;1715469;81;20906;-79
2022/12/08 10:02:25;;;;;;;22.85;15.58;;;;;;;1.41;87.23;100039.95;1719763;82;21550;-80
2022/12/08 10:05:14;;;;;;;22.30;14.95;;;;;;;1.44;87.29;100045.93;1702127;82;20994;-79
2022/12/08 10:08:13;;;;;;;21.23;16.60;;;;;;;1.46;87.27;100044.67;1716094;81;20965;-79
2022/12/08 10:11:02;;;;;;;21.80;15.43;;;;;;;1.46;87.28;100041.71;1718107;81;21533;-79
2022/12/08 10:14:13;;;;;;;25.17;17.62;;;;;;;1.47;87.29;100040.87;1717034;81;21430;-77
2022/12/08 10:17:05;;;;;;;23.57;16.20;;;;;;;1.48;87.31;100037.48;1716606;81;20982;-78
2022/12/08 10:19:58;;;;;;;24.07;16.30;;;;;;;1.51;87.32;100032.84;1714944;81;21395;-78
2022/12/08 10:22:46;;;;;;;24.82;16.25;;;;;;;1.51;87.30;100031.16;1717113;81;20958;-78
2022/12/08 10:25:35;;;;;;;24.80;17.17;;;;;;;1.52;87.31;100031.59;1718942;81;20907;-78
2022/12/08 10:28:20;;;;;;;23.30;16.93;;;;;;;1.52;87.35;100030.31;1712092;81;20938;-78
2022/12/08 10:31:05;;;;;;;23.38;17.57;;;;;;;1.55;87.40;100032.90;1710178;81;21308;-76
2022/12/08 10:34:02;;;;;;;30.57;19.07;;;;;;;1.57;87.36;100029.91;1711500;82;21814;-78
2022/12/08 10:36:59;;;;;;;28.62;18.27;;;;;;;1.59;87.39;100035.03;1715964;81;20910;-76
2022/12/08 10:39:45;;;;;;;28.52;19.60;;;;;;;1.61;87.41;100034.20;1712467;81;20922;-76
2022/12/08 10:42:38;;;;;;;31.85;20.57;;;;;;;1.63;87.39;100037.63;1709572;81;21394;-78
2022/12/08 10:45:31;;;;;;;38.28;22.40;;;;;;;1.63;87.43;100035.08;1707517;82;21513;-78
2022/12/08 10:48:30;;;;;;;36.25;21.97;;;;;;;1.65;87.44;100032.12;1709982;81;20998;-78
2022/12/08 10:51:34;;;;;;;35.38;23.18;;;;;;;1.67;87.44;100027.05;1709634;82;20911;-78
2022/12/08 10:54:36;;;;;;;39.40;23.55;;;;;;;1.70;87.49;100030.91;1710734;82;20957;-77
2022/12/08 10:57:24;;;;;;;37.95;24.18;;;;;;;1.73;87.47;100024.98;1711965;82;20898;-77
2022/12/08 11:00:13;;;;;;;34.63;23.18;;;;;;;1.74;87.45;100025.42;1711122;81;20950;-77
2022/12/08 11:03:03;;;;;;;34.27;23.38;;;;;;;1.75;87.45;100025.85;1713441;80;20906;-77
2022/12/08 11:05:49;;;;;;;34.48;22.15;;;;;;;1.75;87.47;100025.44;1712633;80;21447;-77
2022/12/08 11:08:39;;;;;;;35.93;22.97;;;;;;;1.76;87.49;100019.91;1712407;82;20918;-78
2022/12/08 11:11:45;;;;;;;32.85;21.45;;;;;;;1.79;87.52;100017.40;1711845;82;21738;-78
2022/12/08 11:14:44;;;;;;;33.55;21.55;;;;;;;1.80;87.51;100017.41;1711740;80;20911;-77
2022/12/08 11:17:40;;;;;;;37.13;21.70;;;;;;;1.84;87.52;100015.33;1711682;82;20950;-77
2022/12/08 11:20:25;;;;;;;37.73;23.77;;;;;;;1.86;87.52;100017.47;1712019;80;21494;-77
2022/12/08 11:23:23;;;;;;;36.28;22.55;;;;;;;1.88;87.55;100014.94;1713410;81;21450;-78
2022/12/08 11:26:25;;;;;;;42.10;24.55;;;;;;;1.89;87.50;100011.13;1713561;81;20973;-78
2022/12/08 11:29:11;;;;;;;34.48;23.60;;;;;;;1.91;87.54;100013.70;1712102;81;21573;-79
2022/12/08 11:32:07;;;;;;;37.78;23.07;;;;;;;1.92;87.52;100008.61;1716938;81;21518;-78
2022/12/08 11:35:03;;;;;;;33.00;22.30;;;;;;;1.97;87.59;100008.66;1645592;82;5000715;-78
2022/12/08 11:37:48;;;;;;;36.45;24.25;;;;;;;2.03;87.65;100009.98;1706342;81;21384;-77
2022/12/08 11:40:36;;;;;;;39.08;22.80;;;;;;;2.09;87.66;100006.18;1721356;81;20891;-78
2022/12/08 11:43:45;;;;;;;36.75;22.98;;;;;;;2.14;87.66;100010.05;1714081;81;20977;-78
2022/12/08 11:46:38;;;;;;;34.43;20.85;;;;;;;2.18;87.69;100002.43;1716518;81;20998;-78
2022/12/08 11:49:28;;;;;;;37.90;21.93;;;;;;;2.22;87.66;99999.06;1716850;81;20941;-78
2022/12/08 11:52:29;;;;;;;32.15;20.40;;;;;;;2.24;87.61;99999.92;1715794;81;21599;-78
2022/12/08 11:55:42;;;;;;;29.98;20.57;;;;;;;2.26;87.64;99999.52;1705483;81;20985;-78
2022/12/08 11:58:50;;;;;;;34.83;22.40;;;;;;;2.27;87.61;99989.75;1715770;81;20954;-78
2022/12/08 12:01:35;;;;;;;31.45;21.25;;;;;;;2.30;87.66;99988.92;1716066;81;21030;-78
2022/12/08 12:04:43;;;;;;;32.42;21.48;;;;;;;2.33;87.72;99991.07;1714638;81;20990;-78
2022/12/08 12:08:01;;;;;;;29.75;19.70;;;;;;;2.38;87.72;99995.35;1714185;81;20902;-78
2022/12/08 12:11:09;;;;;;;26.17;17.62;;;;;;;2.40;87.70;100001.32;1714307;81;21458;-78
2022/12/08 12:14:30;;;;;;;26.00;16.10;;;;;;;2.42;87.71;99991.56;1715529;81;20994;-78
2022/12/08 12:17:46;;;;;;;22.05;15.88;;;;;;;2.43;87.69;99992.41;1706213;82;21830;-78
2022/12/08 12:21:15;;;;;;;29.10;17.75;;;;;;;2.44;87.69;99987.32;1715608;81;24464;-77
2022/12/08 12:24:20;;;;;;;26.57;17.12;;;;;;;2.44;87.69;99982.22;1705146;82;20998;-77
2022/12/08 12:27:16;;;;;;;24.23;17.48;;;;;;;2.45;87.72;99985.20;1705492;81;21376;-77
2022/12/08 12:30:05;;;;;;;27.80;17.05;;;;;;;2.46;87.70;99981.80;1704735;82;21744;-77
2022/12/08 12:32:59;;;;;;;22.80;17.55;;;;;;;2.50;87.76;99980.13;1706228;82;20939;-77
2022/12/08 12:35:48;;;;;;;27.30;16.27;;;;;;;2.51;87.75;99978.86;1703587;82;20918;-76
2022/12/08 12:41:53;;;;;;;28.12;17.52;;;;;;;2.52;87.73;99981.84;1703942;82;20954;-77
2022/12/08 12:44:39;;;;;;;21.48;16.40;;;;;;;2.53;87.73;99977.59;1645654;84;21019;-77
2022/12/08 12:47:51;;;;;;;25.45;17.55;;;;;;;2.53;87.73;99977.59;1644908;85;21564;-76
2022/12/08 12:50:48;;;;;;;28.98;18.82;;;;;;;2.52;87.73;99972.06;1644304;85;20983;-77
2022/12/08 12:53:41;;;;;;;28.15;18.02;;;;;;;2.52;87.75;99971.64;1642456;85;20903;-77
2022/12/08 12:56:53;;;;;;;25.77;17.92;;;;;;;2.53;87.78;99973.34;1645323;84;21022;-77
2022/12/08 12:59:54;;;;;;;26.57;17.02;;;;;;;2.53;87.76;99970.80;1644680;85;21492;-77
2022/12/08 13:02:44;;;;;;;26.68;16.02;;;;;;;2.55;87.79;99965.28;1574560;89;21089;-76
2022/12/08 13:05:33;;;;;;;24.12;17.87;;;;;;;2.54;87.75;99964.84;1574734;89;21074;-77
2022/12/08 13:08:25;;;;;;;26.30;18.02;;;;;;;2.54;87.79;99967.40;1575865;89;21083;-74
2022/12/08 13:11:11;;;;;;;25.80;17.35;;;;;;;2.55;87.79;99960.59;1575209;89;21645;-78
2022/12/08 13:14:06;;;;;;;26.77;17.42;;;;;;;2.57;87.80;99962.31;1576383;89;21548;-78
2022/12/08 13:16:52;;;;;;;26.37;18.42;;;;;;;2.57;87.79;99965.29;1576179;90;21459;-78